sensor_id;sensor_type;location;lat;lon;timestamp;temperature;humidity
43607;DHT22;29197;44.788;10.366;2023-07-02T00:50:22;23.20;99.90
43607;DHT22;29197;44.788;10.366;2023-07-02T00:53:11;23.10;99.90
43607;DHT22;29197;44.788;10.366;2023-07-02T00:55:59;23.00;99.90
43607;DHT22;29197;44.788;10.366;2023-07-02T00:58:49;22.90;99.90
43607;DHT22;29197;44.788;10.366;2023-07-02T01:01:39;22.80;99.90
43607;DHT22;29197;44.788;10.366;2023-07-02T01:04:28;22.70;99.90
43607;DHT22;29197;44.788;10.366;2023-07-02T01:07:17;22.70;99.90
43607;DHT22;29197;44.788;10.366;2023-07-02T01:10:06;22.80;99.90
43607;DHT22;29197;44.788;10.366;2023-07-02T01:12:55;22.90;99.90
43607;DHT22;29197;44.788;10.366;2023-07-02T01:15:44;22.90;99.90
43607;DHT22;29197;44.788;10.366;2023-07-02T01:18:34;23.00;99.90
43607;DHT22;29197;44.788;10.366;2023-07-02T01:21:26;23.10;99.90
43607;DHT22;29197;44.788;10.366;2023-07-02T01:24:16;23.20;99.90
43607;DHT22;29197;44.788;10.366;2023-07-02T01:27:05;23.30;99.90
43607;DHT22;29197;44.788;10.366;2023-07-02T01:29:53;23.30;99.90
43607;DHT22;29197;44.788;10.366;2023-07-02T01:32:42;23.20;99.90
43607;DHT22;29197;44.788;10.366;2023-07-02T01:35:31;23.20;99.90
43607;DHT22;29197;44.788;10.366;2023-07-02T01:38:21;23.30;99.90
43607;DHT22;29197;44.788;10.366;2023-07-02T01:41:10;23.30;99.90
43607;DHT22;29197;44.788;10.366;2023-07-02T01:43:59;23.20;99.90
43607;DHT22;29197;44.788;10.366;2023-07-02T01:46:48;22.80;99.90
43607;DHT22;29197;44.788;10.366;2023-07-02T01:49:36;22.80;99.90
43607;DHT22;29197;44.788;10.366;2023-07-02T01:52:25;22.90;99.90
43607;DHT22;29197;44.788;10.366;2023-07-02T01:55:16;22.90;99.90
43607;DHT22;29197;44.788;10.366;2023-07-02T01:58:05;23.00;99.90
43607;DHT22;29197;44.788;10.366;2023-07-02T02:00:54;23.10;99.90
43607;DHT22;29197;44.788;10.366;2023-07-02T02:03:42;23.10;99.90
43607;DHT22;29197;44.788;10.366;2023-07-02T02:06:31;23.20;99.90
43607;DHT22;29197;44.788;10.366;2023-07-02T02:09:20;23.20;99.90
43607;DHT22;29197;44.788;10.366;2023-07-02T02:12:10;23.10;99.90
43607;DHT22;29197;44.788;10.366;2023-07-02T02:15:01;23.00;99.90
43607;DHT22;29197;44.788;10.366;2023-07-02T02:17:49;22.80;99.90
43607;DHT22;29197;44.788;10.366;2023-07-02T02:20:39;22.80;99.90
43607;DHT22;29197;44.788;10.366;2023-07-02T02:23:27;22.80;99.90
43607;DHT22;29197;44.788;10.366;2023-07-02T02:26:16;22.80;99.90
43607;DHT22;29197;44.788;10.366;2023-07-02T02:29:07;22.90;99.90
43607;DHT22;29197;44.788;10.366;2023-07-02T02:31:56;22.90;99.90
43607;DHT22;29197;44.788;10.366;2023-07-02T02:34:44;23.00;99.90
43607;DHT22;29197;44.788;10.366;2023-07-02T02:37:34;22.80;99.90
43607;DHT22;29197;44.788;10.366;2023-07-02T02:40:23;22.70;99.90
43607;DHT22;29197;44.788;10.366;2023-07-02T02:43:11;22.70;99.90
43607;DHT22;29197;44.788;10.366;2023-07-02T02:46:01;22.70;99.90
43607;DHT22;29197;44.788;10.366;2023-07-02T02:48:50;22.60;99.90
43607;DHT22;29197;44.788;10.366;2023-07-02T02:51:39;22.30;99.90
43607;DHT22;29197;44.788;10.366;2023-07-02T02:54:28;22.10;99.90
43607;DHT22;29197;44.788;10.366;2023-07-02T02:57:17;22.10;99.90
43607;DHT22;29197;44.788;10.366;2023-07-02T03:02:58;22.00;99.90
43607;DHT22;29197;44.788;10.366;2023-07-02T03:05:47;22.00;99.90
43607;DHT22;29197;44.788;10.366;2023-07-02T03:08:35;21.60;99.90
43607;DHT22;29197;44.788;10.366;2023-07-02T03:14:13;21.50;99.90
43607;DHT22;29197;44.788;10.366;2023-07-02T03:17:02;21.60;99.90
43607;DHT22;29197;44.788;10.366;2023-07-02T03:19:52;21.70;99.90
43607;DHT22;29197;44.788;10.366;2023-07-02T03:22:41;21.70;99.90
43607;DHT22;29197;44.788;10.366;2023-07-02T03:25:30;21.50;99.90
43607;DHT22;29197;44.788;10.366;2023-07-02T03:28:18;21.50;99.90
43607;DHT22;29197;44.788;10.366;2023-07-02T03:31:07;21.50;99.90
43607;DHT22;29197;44.788;10.366;2023-07-02T03:33:55;21.50;99.90
43607;DHT22;29197;44.788;10.366;2023-07-02T03:36:45;21.50;99.90
43607;DHT22;29197;44.788;10.366;2023-07-02T03:39:34;21.50;99.90
43607;DHT22;29197;44.788;10.366;2023-07-02T03:42:22;21.60;99.90
43607;DHT22;29197;44.788;10.366;2023-07-02T03:45:11;21.60;99.90
43607;DHT22;29197;44.788;10.366;2023-07-02T03:47:59;21.70;99.90
43607;DHT22;29197;44.788;10.366;2023-07-02T03:50:48;21.80;99.90
43607;DHT22;29197;44.788;10.366;2023-07-02T03:53:38;21.90;99.90
43607;DHT22;29197;44.788;10.366;2023-07-02T03:56:27;21.90;99.90
43607;DHT22;29197;44.788;10.366;2023-07-02T03:59:15;21.80;99.90
43607;DHT22;29197;44.788;10.366;2023-07-02T04:02:04;21.80;99.90
43607;DHT22;29197;44.788;10.366;2023-07-02T04:04:53;21.90;99.90
43607;DHT22;29197;44.788;10.366;2023-07-02T04:13:21;22.10;99.90
43607;DHT22;29197;44.788;10.366;2023-07-02T04:16:09;22.20;99.90
43607;DHT22;29197;44.788;10.366;2023-07-02T04:18:58;22.30;99.90
43607;DHT22;29197;44.788;10.366;2023-07-02T04:21:46;22.40;99.90
43607;DHT22;29197;44.788;10.366;2023-07-02T04:24:35;22.50;99.90
43607;DHT22;29197;44.788;10.366;2023-07-02T04:27:25;22.60;99.90
43607;DHT22;29197;44.788;10.366;2023-07-02T04:30:34;22.70;99.90
43607;DHT22;29197;44.788;10.366;2023-07-02T04:33:22;22.60;99.90
43607;DHT22;29197;44.788;10.366;2023-07-02T04:36:11;22.60;99.90
43607;DHT22;29197;44.788;10.366;2023-07-02T04:39:00;22.60;99.90
43607;DHT22;29197;44.788;10.366;2023-07-02T04:41:49;22.60;99.90
43607;DHT22;29197;44.788;10.366;2023-07-02T04:44:41;22.70;99.90
43607;DHT22;29197;44.788;10.366;2023-07-02T04:47:30;22.80;99.90
43607;DHT22;29197;44.788;10.366;2023-07-02T04:50:19;22.90;99.90
43607;DHT22;29197;44.788;10.366;2023-07-02T04:53:08;23.00;99.90
43607;DHT22;29197;44.788;10.366;2023-07-02T04:55:56;23.10;99.90
43607;DHT22;29197;44.788;10.366;2023-07-02T04:58:45;23.10;99.90
43607;DHT22;29197;44.788;10.366;2023-07-02T05:01:35;23.20;99.90
43607;DHT22;29197;44.788;10.366;2023-07-02T05:04:24;23.20;99.90
43607;DHT22;29197;44.788;10.366;2023-07-02T05:07:12;23.20;99.90
43607;DHT22;29197;44.788;10.366;2023-07-02T05:10:01;23.20;99.90
43607;DHT22;29197;44.788;10.366;2023-07-02T05:12:50;23.30;99.90
43607;DHT22;29197;44.788;10.366;2023-07-02T05:15:39;23.30;99.90
43607;DHT22;29197;44.788;10.366;2023-07-02T05:18:30;23.30;99.90
43607;DHT22;29197;44.788;10.366;2023-07-02T05:21:19;23.30;99.90
43607;DHT22;29197;44.788;10.366;2023-07-02T05:24:08;23.30;99.90
43607;DHT22;29197;44.788;10.366;2023-07-02T05:26:57;23.40;99.90
43607;DHT22;29197;44.788;10.366;2023-07-02T05:29:45;23.40;99.90
43607;DHT22;29197;44.788;10.366;2023-07-02T05:32:35;23.40;99.90
43607;DHT22;29197;44.788;10.366;2023-07-02T05:35:25;23.40;99.90
43607;DHT22;29197;44.788;10.366;2023-07-02T05:38:14;23.50;99.90
43607;DHT22;29197;44.788;10.366;2023-07-02T05:41:03;23.50;99.90
43607;DHT22;29197;44.788;10.366;2023-07-02T05:43:51;23.50;99.90
43607;DHT22;29197;44.788;10.366;2023-07-02T05:46:40;23.60;99.90
43607;DHT22;29197;44.788;10.366;2023-07-02T05:49:29;23.60;99.90
43607;DHT22;29197;44.788;10.366;2023-07-02T05:52:19;23.60;99.90
43607;DHT22;29197;44.788;10.366;2023-07-02T05:57:58;23.70;99.90
43607;DHT22;29197;44.788;10.366;2023-07-02T06:00:49;23.70;99.90
43607;DHT22;29197;44.788;10.366;2023-07-02T06:03:37;23.70;99.90
43607;DHT22;29197;44.788;10.366;2023-07-02T06:12:05;24.00;99.90
43607;DHT22;29197;44.788;10.366;2023-07-02T07:05:39;26.20;99.90
43607;DHT22;29197;44.788;10.366;2023-07-02T07:08:28;26.20;99.90
43607;DHT22;29197;44.788;10.366;2023-07-02T07:11:16;26.30;99.90
43607;DHT22;29197;44.788;10.366;2023-07-02T07:14:05;26.40;99.90
43607;DHT22;29197;44.788;10.366;2023-07-02T07:16:55;26.40;99.90
43607;DHT22;29197;44.788;10.366;2023-07-02T07:19:43;26.40;99.90
43607;DHT22;29197;44.788;10.366;2023-07-02T07:22:34;26.50;99.90
43607;DHT22;29197;44.788;10.366;2023-07-02T07:25:22;26.50;99.90
43607;DHT22;29197;44.788;10.366;2023-07-02T10:09:36;28.70;99.90
43607;DHT22;29197;44.788;10.366;2023-07-02T10:12:26;28.70;99.90
43607;DHT22;29197;44.788;10.366;2023-07-02T10:15:24;28.70;99.90
43607;DHT22;29197;44.788;10.366;2023-07-02T10:18:13;28.70;99.90
43607;DHT22;29197;44.788;10.366;2023-07-02T10:21:13;28.80;99.90
43607;DHT22;29197;44.788;10.366;2023-07-02T10:24:12;28.80;99.90
43607;DHT22;29197;44.788;10.366;2023-07-02T10:27:01;28.90;99.90
43607;DHT22;29197;44.788;10.366;2023-07-02T10:29:51;28.80;99.90
43607;DHT22;29197;44.788;10.366;2023-07-02T10:32:39;29.00;99.90
43607;DHT22;29197;44.788;10.366;2023-07-02T10:35:33;29.00;99.90
43607;DHT22;29197;44.788;10.366;2023-07-02T10:38:23;29.10;99.90
43607;DHT22;29197;44.788;10.366;2023-07-02T10:41:23;29.20;99.90
43607;DHT22;29197;44.788;10.366;2023-07-02T10:44:12;29.30;99.90
43607;DHT22;29197;44.788;10.366;2023-07-02T10:47:03;29.40;99.90
43607;DHT22;29197;44.788;10.366;2023-07-02T10:49:51;29.50;99.90
43607;DHT22;29197;44.788;10.366;2023-07-02T10:52:40;29.60;99.90
43607;DHT22;29197;44.788;10.366;2023-07-02T10:55:29;29.70;99.90
43607;DHT22;29197;44.788;10.366;2023-07-02T10:58:20;29.70;99.90
43607;DHT22;29197;44.788;10.366;2023-07-02T11:01:09;29.80;99.90
43607;DHT22;29197;44.788;10.366;2023-07-02T11:04:00;29.80;99.90
43607;DHT22;29197;44.788;10.366;2023-07-02T11:06:49;29.80;99.90
43607;DHT22;29197;44.788;10.366;2023-07-02T11:09:38;29.80;99.90
43607;DHT22;29197;44.788;10.366;2023-07-02T11:12:29;29.90;99.90
43607;DHT22;29197;44.788;10.366;2023-07-02T11:29:42;30.30;99.90
43607;DHT22;29197;44.788;10.366;2023-07-02T11:32:46;30.40;99.90
43607;DHT22;29197;44.788;10.366;2023-07-02T11:35:35;30.50;99.90
43607;DHT22;29197;44.788;10.366;2023-07-02T11:38:24;30.70;99.90
43607;DHT22;29197;44.788;10.366;2023-07-02T11:41:12;30.80;99.90
43607;DHT22;29197;44.788;10.366;2023-07-02T11:44:01;30.90;99.90
43607;DHT22;29197;44.788;10.366;2023-07-02T11:46:50;31.00;99.90
43607;DHT22;29197;44.788;10.366;2023-07-02T11:49:40;31.00;99.90
43607;DHT22;29197;44.788;10.366;2023-07-02T11:52:28;30.90;99.90
43607;DHT22;29197;44.788;10.366;2023-07-02T11:55:17;30.90;99.90
43607;DHT22;29197;44.788;10.366;2023-07-02T11:58:05;30.90;99.90
43607;DHT22;29197;44.788;10.366;2023-07-02T12:15:02;31.70;99.90
43607;DHT22;29197;44.788;10.366;2023-07-02T12:17:51;31.80;99.90
43607;DHT22;29197;44.788;10.366;2023-07-02T12:20:40;32.00;99.90
43607;DHT22;29197;44.788;10.366;2023-07-02T12:23:30;32.20;99.90
43607;DHT22;29197;44.788;10.366;2023-07-02T12:26:18;32.20;99.90
43607;DHT22;29197;44.788;10.366;2023-07-02T12:29:07;32.10;99.90
43607;DHT22;29197;44.788;10.366;2023-07-02T12:31:55;32.20;99.90
43607;DHT22;29197;44.788;10.366;2023-07-02T12:37:33;32.90;99.90
43607;DHT22;29197;44.788;10.366;2023-07-02T12:40:23;32.90;99.90
43607;DHT22;29197;44.788;10.366;2023-07-02T12:43:11;33.00;99.90
43607;DHT22;29197;44.788;10.366;2023-07-02T12:57:18;33.30;99.90
43607;DHT22;29197;44.788;10.366;2023-07-02T13:00:08;33.30;99.90
43607;DHT22;29197;44.788;10.366;2023-07-02T13:02:57;33.30;99.90
43607;DHT22;29197;44.788;10.366;2023-07-02T13:05:51;33.30;99.90
43607;DHT22;29197;44.788;10.366;2023-07-02T13:08:40;33.40;99.90
43607;DHT22;29197;44.788;10.366;2023-07-02T13:11:29;33.50;99.90
43607;DHT22;29197;44.788;10.366;2023-07-02T13:14:19;33.50;99.90
43607;DHT22;29197;44.788;10.366;2023-07-02T13:17:07;33.60;99.90
43607;DHT22;29197;44.788;10.366;2023-07-02T13:19:56;33.60;99.90
43607;DHT22;29197;44.788;10.366;2023-07-02T13:22:44;33.60;99.90
43607;DHT22;29197;44.788;10.366;2023-07-02T13:25:33;33.60;99.90
43607;DHT22;29197;44.788;10.366;2023-07-02T13:28:22;33.60;99.90
43607;DHT22;29197;44.788;10.366;2023-07-02T13:31:14;33.70;99.90
43607;DHT22;29197;44.788;10.366;2023-07-02T13:34:03;33.70;99.90
43607;DHT22;29197;44.788;10.366;2023-07-02T13:36:52;33.70;99.90
43607;DHT22;29197;44.788;10.366;2023-07-02T13:39:40;33.80;99.90
43607;DHT22;29197;44.788;10.366;2023-07-02T13:42:29;33.90;99.90
43607;DHT22;29197;44.788;10.366;2023-07-02T13:45:17;33.90;99.90
43607;DHT22;29197;44.788;10.366;2023-07-02T13:48:07;33.90;99.90
43607;DHT22;29197;44.788;10.366;2023-07-02T13:50:56;33.90;99.90
43607;DHT22;29197;44.788;10.366;2023-07-02T13:53:44;34.10;99.90
43607;DHT22;29197;44.788;10.366;2023-07-02T13:56:33;34.10;99.90
43607;DHT22;29197;44.788;10.366;2023-07-02T13:59:23;34.10;99.90
43607;DHT22;29197;44.788;10.366;2023-07-02T14:02:12;34.10;99.90
43607;DHT22;29197;44.788;10.366;2023-07-02T14:05:00;34.00;99.90
43607;DHT22;29197;44.788;10.366;2023-07-02T14:07:49;34.00;99.90
43607;DHT22;29197;44.788;10.366;2023-07-02T14:10:38;33.90;99.90
43607;DHT22;29197;44.788;10.366;2023-07-02T14:13:26;34.00;99.90
43607;DHT22;29197;44.788;10.366;2023-07-02T14:16:16;33.90;99.90
43607;DHT22;29197;44.788;10.366;2023-07-02T14:19:05;33.80;99.90
43607;DHT22;29197;44.788;10.366;2023-07-02T14:21:54;33.60;99.90
43607;DHT22;29197;44.788;10.366;2023-07-02T14:24:43;33.60;99.90
43607;DHT22;29197;44.788;10.366;2023-07-02T14:27:32;33.70;99.90
43607;DHT22;29197;44.788;10.366;2023-07-02T14:30:21;33.70;99.90
43607;DHT22;29197;44.788;10.366;2023-07-02T14:33:11;33.90;99.90
43607;DHT22;29197;44.788;10.366;2023-07-02T14:36:01;33.90;99.90
43607;DHT22;29197;44.788;10.366;2023-07-02T14:38:50;33.90;99.90
43607;DHT22;29197;44.788;10.366;2023-07-02T14:41:38;33.90;99.90
43607;DHT22;29197;44.788;10.366;2023-07-02T14:44:27;34.00;99.90
43607;DHT22;29197;44.788;10.366;2023-07-02T14:47:15;34.00;99.90
43607;DHT22;29197;44.788;10.366;2023-07-02T14:50:06;33.80;99.90
43607;DHT22;29197;44.788;10.366;2023-07-02T14:52:55;33.50;99.90
43607;DHT22;29197;44.788;10.366;2023-07-02T14:55:43;33.20;99.90
43607;DHT22;29197;44.788;10.366;2023-07-02T14:58:32;32.80;99.90
43607;DHT22;29197;44.788;10.366;2023-07-02T15:01:21;32.50;99.90
43607;DHT22;29197;44.788;10.366;2023-07-02T15:04:09;32.40;99.90
43607;DHT22;29197;44.788;10.366;2023-07-02T15:07:00;32.50;99.90
43607;DHT22;29197;44.788;10.366;2023-07-02T15:09:48;32.50;99.90
43607;DHT22;29197;44.788;10.366;2023-07-02T15:12:37;32.40;99.90
43607;DHT22;29197;44.788;10.366;2023-07-02T15:15:25;32.20;99.90
43607;DHT22;29197;44.788;10.366;2023-07-02T15:18:14;32.00;99.90
43607;DHT22;29197;44.788;10.366;2023-07-02T15:21:03;31.90;99.90
43607;DHT22;29197;44.788;10.366;2023-07-02T15:23:53;31.80;99.90
43607;DHT22;29197;44.788;10.366;2023-07-02T15:26:42;31.70;99.90
43607;DHT22;29197;44.788;10.366;2023-07-02T15:29:31;31.70;99.90
43607;DHT22;29197;44.788;10.366;2023-07-02T15:32:19;31.80;99.90
43607;DHT22;29197;44.788;10.366;2023-07-02T15:35:08;31.80;99.90
43607;DHT22;29197;44.788;10.366;2023-07-02T15:37:56;31.80;99.90
43607;DHT22;29197;44.788;10.366;2023-07-02T15:40:48;31.90;99.90
43607;DHT22;29197;44.788;10.366;2023-07-02T15:43:37;32.10;99.90
43607;DHT22;29197;44.788;10.366;2023-07-02T15:46:25;32.30;99.90
43607;DHT22;29197;44.788;10.366;2023-07-02T15:49:14;32.40;99.90
43607;DHT22;29197;44.788;10.366;2023-07-02T15:52:03;32.40;99.90
43607;DHT22;29197;44.788;10.366;2023-07-02T15:54:51;32.50;99.90
43607;DHT22;29197;44.788;10.366;2023-07-02T15:57:41;32.50;99.90
43607;DHT22;29197;44.788;10.366;2023-07-02T16:00:30;32.40;99.90
43607;DHT22;29197;44.788;10.366;2023-07-02T16:03:19;32.30;99.90
43607;DHT22;29197;44.788;10.366;2023-07-02T16:06:12;32.40;99.90
43607;DHT22;29197;44.788;10.366;2023-07-02T16:09:02;32.30;99.90
43607;DHT22;29197;44.788;10.366;2023-07-02T16:11:51;32.30;99.90
43607;DHT22;29197;44.788;10.366;2023-07-02T16:14:41;32.20;99.90
43607;DHT22;29197;44.788;10.366;2023-07-02T16:17:29;32.10;99.90
43607;DHT22;29197;44.788;10.366;2023-07-02T16:20:18;31.80;99.90
43607;DHT22;29197;44.788;10.366;2023-07-02T16:23:07;31.60;99.90
43607;DHT22;29197;44.788;10.366;2023-07-02T16:25:58;31.60;99.90
43607;DHT22;29197;44.788;10.366;2023-07-02T16:28:48;31.50;99.90
43607;DHT22;29197;44.788;10.366;2023-07-02T16:31:40;31.40;99.90
43607;DHT22;29197;44.788;10.366;2023-07-02T16:42:56;31.20;99.90
43607;DHT22;29197;44.788;10.366;2023-07-02T16:45:51;31.10;99.90
43607;DHT22;29197;44.788;10.366;2023-07-02T16:48:41;31.20;99.90
43607;DHT22;29197;44.788;10.366;2023-07-02T16:51:30;31.10;99.90
43607;DHT22;29197;44.788;10.366;2023-07-02T21:00:29;27.10;99.90
43607;DHT22;29197;44.788;10.366;2023-07-02T21:03:19;26.90;99.90
43607;DHT22;29197;44.788;10.366;2023-07-02T21:06:09;26.90;99.90
43607;DHT22;29197;44.788;10.366;2023-07-02T21:08:58;26.90;99.90
43607;DHT22;29197;44.788;10.366;2023-07-02T21:11:48;27.10;99.90
43607;DHT22;29197;44.788;10.366;2023-07-02T21:14:36;26.90;99.90
43607;DHT22;29197;44.788;10.366;2023-07-02T21:17:25;26.90;99.90
43607;DHT22;29197;44.788;10.366;2023-07-02T21:20:15;26.90;99.90
43607;DHT22;29197;44.788;10.366;2023-07-02T21:23:04;26.90;99.90
43607;DHT22;29197;44.788;10.366;2023-07-02T21:25:56;26.90;99.90
43607;DHT22;29197;44.788;10.366;2023-07-02T21:28:44;26.80;99.90
43607;DHT22;29197;44.788;10.366;2023-07-02T21:31:33;26.80;99.90
43607;DHT22;29197;44.788;10.366;2023-07-02T21:34:23;26.80;99.90
43607;DHT22;29197;44.788;10.366;2023-07-02T21:37:13;26.80;99.90
43607;DHT22;29197;44.788;10.366;2023-07-02T21:40:02;26.80;99.90
43607;DHT22;29197;44.788;10.366;2023-07-02T21:42:50;26.70;99.90
43607;DHT22;29197;44.788;10.366;2023-07-02T21:45:39;26.80;99.90
43607;DHT22;29197;44.788;10.366;2023-07-02T21:51:17;26.70;99.90
43607;DHT22;29197;44.788;10.366;2023-07-02T21:54:08;26.70;99.90
43607;DHT22;29197;44.788;10.366;2023-07-02T21:56:56;26.60;99.90
43607;DHT22;29197;44.788;10.366;2023-07-02T21:59:45;26.60;99.90
43607;DHT22;29197;44.788;10.366;2023-07-02T22:02:33;26.50;99.90
43607;DHT22;29197;44.788;10.366;2023-07-02T22:05:22;26.40;99.90
43607;DHT22;29197;44.788;10.366;2023-07-02T22:08:11;26.50;99.90
43607;DHT22;29197;44.788;10.366;2023-07-02T22:11:01;26.40;99.90
43607;DHT22;29197;44.788;10.366;2023-07-02T22:16:57;26.30;99.90
